createdAt,value
2017-11-16T00:01:15.827Z,32.23
2017-11-16T00:03:43.317Z,35.70
2017-11-16T00:06:10.771Z,26.47
2017-11-16T00:08:38.255Z,28.23
2017-11-16T00:11:05.727Z,26.70
2017-11-16T00:13:33.198Z,28.00
2017-11-16T00:16:00.675Z,21.00
2017-11-16T00:18:28.132Z,24.73
2017-11-16T00:20:55.591Z,29.30
2017-11-16T00:23:23.069Z,22.27
2017-11-16T00:25:51.292Z,20.57
2017-11-16T00:28:23.132Z,23.37
2017-11-16T00:30:50.644Z,24.30
2017-11-16T00:33:18.894Z,20.00
2017-11-16T00:35:46.344Z,22.77
2017-11-16T00:38:13.812Z,19.70
2017-11-16T00:40:41.283Z,23.47
2017-11-16T00:43:09.535Z,21.40
2017-11-16T00:45:37.008Z,18.97
2017-11-16T00:48:04.463Z,23.00
2017-11-16T00:50:31.943Z,21.77
2017-11-16T00:52:59.404Z,16.00
2017-11-16T00:55:26.947Z,22.73
2017-11-16T00:57:55.196Z,18.80
2017-11-16T01:00:22.679Z,18.30
2017-11-16T01:02:50.145Z,17.43
2017-11-16T01:05:18.368Z,19.53
2017-11-16T01:07:45.861Z,20.60
2017-11-16T01:10:13.320Z,24.40
2017-11-16T01:12:40.772Z,19.73
2017-11-16T01:15:08.248Z,19.37
2017-11-16T01:17:35.699Z,18.60
2017-11-16T01:20:04.680Z,23.60
2017-11-16T01:22:33.652Z,23.10
2017-11-16T01:25:01.129Z,21.70
2017-11-16T01:27:28.589Z,23.37
2017-11-16T01:29:56.862Z,23.10
2017-11-16T01:32:24.323Z,21.47
2017-11-16T01:34:51.798Z,20.03
2017-11-16T01:37:20.044Z,21.30
2017-11-16T01:39:47.500Z,26.20
2017-11-16T01:42:14.979Z,24.33
2017-11-16T01:44:42.533Z,24.77
2017-11-16T01:47:10.753Z,21.10
2017-11-16T01:49:38.231Z,18.80
2017-11-16T01:52:05.687Z,18.60
2017-11-16T01:54:33.176Z,18.83
2017-11-16T01:57:00.631Z,21.23
2017-11-16T01:59:28.107Z,22.60
2017-11-16T02:01:56.343Z,19.00
2017-11-16T02:04:23.800Z,21.90
2017-11-16T02:06:51.279Z,27.00
2017-11-16T02:09:18.745Z,21.97
2017-11-16T02:11:46.979Z,21.30
2017-11-16T02:14:14.461Z,27.30
2017-11-16T02:16:41.927Z,23.80
2017-11-16T02:19:10.169Z,30.20
2017-11-16T02:21:37.628Z,24.70
2017-11-16T02:24:05.104Z,29.07
2017-11-16T02:26:32.565Z,35.60
2017-11-16T02:29:00.031Z,29.97
2017-11-16T02:31:28.253Z,28.73
2017-11-16T02:33:55.733Z,29.27
2017-11-16T02:36:23.191Z,30.20
2017-11-16T02:38:50.681Z,26.60
2017-11-16T02:41:18.893Z,29.80
2017-11-16T02:43:46.390Z,29.33
2017-11-16T02:46:13.848Z,33.07
2017-11-16T02:48:41.408Z,27.73
2017-11-16T02:51:08.894Z,26.37
2017-11-16T02:53:37.118Z,29.43
2017-11-16T02:56:04.608Z,26.03
2017-11-16T02:58:32.832Z,33.97
2017-11-16T03:01:00.325Z,24.50
2017-11-16T03:03:27.888Z,28.40
2017-11-16T03:05:55.366Z,27.27
2017-11-16T03:08:23.588Z,30.10
2017-11-16T03:10:51.180Z,33.63
2017-11-16T03:13:18.641Z,28.17
2017-11-16T03:15:46.099Z,34.80
2017-11-16T03:18:14.367Z,30.57
2017-11-16T03:20:41.828Z,25.67
2017-11-16T03:23:09.307Z,28.07
2017-11-16T03:25:36.768Z,30.73
2017-11-16T03:28:04.295Z,29.13
2017-11-16T03:30:31.756Z,26.10
2017-11-16T03:32:59.212Z,28.67
2017-11-16T03:35:26.767Z,27.73
2017-11-16T03:37:54.269Z,37.47
2017-11-16T03:40:21.740Z,35.77
2017-11-16T03:42:49.227Z,28.70
2017-11-16T03:45:16.688Z,29.70
2017-11-16T03:47:44.170Z,29.90
2017-11-16T03:50:12.412Z,26.63
2017-11-16T03:52:41.404Z,35.93
2017-11-16T03:55:08.863Z,27.80
2017-11-16T03:57:36.322Z,32.77
2017-11-16T04:00:05.310Z,36.07
2017-11-16T04:02:32.775Z,40.00
2017-11-16T04:05:00.246Z,35.10
2017-11-16T04:07:28.505Z,36.43
2017-11-16T04:09:55.976Z,31.63
2017-11-16T04:12:24.197Z,35.33
2017-11-16T04:14:51.671Z,34.40
2017-11-16T04:17:19.133Z,30.83
2017-11-16T04:19:46.607Z,35.17
2017-11-16T04:22:15.608Z,33.07
2017-11-16T04:24:44.583Z,33.43
2017-11-16T04:27:12.827Z,39.33
2017-11-16T04:29:40.305Z,37.47
2017-11-16T04:32:07.781Z,35.73
2017-11-16T04:34:36.009Z,36.43
2017-11-16T04:37:03.492Z,38.03
2017-11-16T04:39:30.954Z,40.57
2017-11-16T04:41:58.423Z,38.20
2017-11-16T04:44:27.393Z,35.47
2017-11-16T04:46:54.864Z,41.33
2017-11-16T04:49:22.324Z,42.37
2017-11-16T04:51:49.783Z,46.97
2017-11-16T04:54:18.052Z,47.00
2017-11-16T04:56:45.533Z,44.97
2017-11-16T04:59:13.767Z,44.03
2017-11-16T05:01:41.239Z,42.17
2017-11-16T05:04:10.239Z,49.10
2017-11-16T05:06:39.228Z,44.23
2017-11-16T05:09:07.461Z,47.27
2017-11-16T05:11:34.937Z,47.33
2017-11-16T05:14:02.392Z,48.60
2017-11-16T05:16:29.876Z,44.07
2017-11-16T05:18:57.340Z,45.93
2017-11-16T05:21:24.802Z,43.00
2017-11-16T05:23:53.046Z,44.37
2017-11-16T05:26:20.499Z,45.47
2017-11-16T05:28:47.975Z,42.07
2017-11-16T05:31:15.432Z,47.80
2017-11-16T05:33:43.704Z,39.47
2017-11-16T05:36:11.178Z,47.50
2017-11-16T05:38:38.635Z,55.63
2017-11-16T05:41:06.888Z,36.93
2017-11-16T05:43:34.366Z,39.67
2017-11-16T05:46:02.611Z,36.80
2017-11-16T05:48:30.079Z,36.00
2017-11-16T05:50:57.560Z,39.90
2017-11-16T05:53:25.779Z,40.43
2017-11-16T05:55:53.259Z,34.03
2017-11-16T05:58:20.839Z,33.00
2017-11-16T06:00:48.293Z,37.70
2017-11-16T06:03:15.767Z,34.03
2017-11-16T06:05:43.235Z,31.87
2017-11-16T06:08:10.708Z,35.20
2017-11-16T06:10:38.168Z,37.50
2017-11-16T06:13:05.644Z,26.63
2017-11-16T06:15:33.108Z,27.80
2017-11-16T06:18:01.825Z,31.17
2017-11-16T06:20:30.059Z,27.90
2017-11-16T06:22:57.543Z,30.40
2017-11-16T06:25:25.006Z,29.20
2017-11-16T06:27:53.257Z,31.20
2017-11-16T06:30:20.716Z,29.83
2017-11-16T06:32:48.183Z,28.37
2017-11-16T06:35:18.366Z,24.10
2017-11-16T06:37:51.487Z,22.50
2017-11-16T06:40:19.065Z,32.77
2017-11-16T06:42:47.284Z,22.63
2017-11-16T06:45:14.780Z,29.10
2017-11-16T06:47:43.029Z,21.23
2017-11-16T06:50:10.500Z,26.20
2017-11-16T06:52:37.980Z,23.67
2017-11-16T06:55:05.450Z,17.80
2017-11-16T06:57:33.755Z,23.33
2017-11-16T07:00:01.241Z,24.90
2017-11-16T07:02:28.701Z,20.37
2017-11-16T07:04:56.158Z,22.47
2017-11-16T07:07:23.654Z,23.03
2017-11-16T07:09:51.895Z,19.00
2017-11-16T07:12:19.373Z,27.00
2017-11-16T07:14:47.601Z,20.57
2017-11-16T07:17:15.072Z,22.53
2017-11-16T07:19:42.536Z,26.57
2017-11-16T07:22:10.018Z,26.27
2017-11-16T07:24:38.240Z,21.20
2017-11-16T07:27:05.712Z,27.73
2017-11-16T07:29:33.187Z,30.37
2017-11-16T07:32:00.652Z,29.93
2017-11-16T07:34:28.130Z,26.57
2017-11-16T07:36:56.367Z,26.90
2017-11-16T07:39:24.116Z,30.57
2017-11-16T07:41:52.236Z,29.90
2017-11-16T07:44:20.455Z,26.50
2017-11-16T07:46:47.933Z,28.63
2017-11-16T07:49:15.388Z,30.67
2017-11-16T07:51:42.884Z,26.97
2017-11-16T07:54:10.360Z,25.60
2017-11-16T07:56:37.827Z,31.33
2017-11-16T07:59:05.328Z,31.47
2017-11-16T08:01:32.779Z,37.77
2017-11-16T08:04:00.277Z,32.43
2017-11-16T08:06:28.504Z,34.77
2017-11-16T08:08:55.980Z,30.60
2017-11-16T08:11:24.229Z,36.97
2017-11-16T08:13:51.718Z,35.93
2017-11-16T08:16:19.943Z,33.43
2017-11-16T08:18:47.403Z,30.90
2017-11-16T08:21:14.912Z,33.17
2017-11-16T08:23:42.361Z,32.80
2017-11-16T08:26:10.616Z,37.80
2017-11-16T08:28:38.181Z,37.50
2017-11-16T08:31:05.644Z,37.13
2017-11-16T08:33:33.128Z,37.97
2017-11-16T08:36:00.620Z,36.13
2017-11-16T08:38:28.076Z,33.43
2017-11-16T08:40:55.564Z,42.57
2017-11-16T08:43:23.132Z,41.27
2017-11-16T08:45:50.607Z,43.90
2017-11-16T08:48:18.835Z,41.33
2017-11-16T08:50:46.340Z,37.87
2017-11-16T08:53:14.596Z,39.33
2017-11-16T08:55:42.056Z,36.30
2017-11-16T08:58:10.308Z,35.20
2017-11-16T09:00:37.782Z,33.13
2017-11-16T09:03:06.114Z,38.90
2017-11-16T09:05:33.597Z,36.80
2017-11-16T09:08:01.069Z,46.27
2017-11-16T09:10:28.555Z,39.77
2017-11-16T09:12:56.037Z,38.73
2017-11-16T09:15:23.488Z,38.50
2017-11-16T09:17:50.969Z,36.37
2017-11-16T09:20:18.447Z,41.60
2017-11-16T09:22:46.673Z,39.03
2017-11-16T09:25:14.155Z,42.37
2017-11-16T09:27:41.627Z,41.20
2017-11-16T09:30:09.109Z,41.50
2017-11-16T09:32:37.340Z,43.63
2017-11-16T09:35:04.813Z,44.50
2017-11-16T09:37:33.072Z,33.67
2017-11-16T09:40:00.535Z,41.87
2017-11-16T09:42:28.012Z,35.90
2017-11-16T09:44:55.488Z,33.70
2017-11-16T09:47:23.706Z,35.07
2017-11-16T09:49:51.176Z,33.67
2017-11-16T09:52:18.640Z,40.63
2017-11-16T09:54:46.132Z,38.27
2017-11-16T09:57:14.352Z,38.27
2017-11-16T09:59:41.841Z,34.97
2017-11-16T10:02:09.314Z,41.90
2017-11-16T10:04:37.576Z,38.03
2017-11-16T10:07:05.032Z,40.60
2017-11-16T10:09:33.264Z,32.73
2017-11-16T10:12:00.752Z,38.47
2017-11-16T10:14:28.221Z,39.50
2017-11-16T10:16:57.209Z,36.43
2017-11-16T10:19:24.664Z,40.30
2017-11-16T10:21:52.183Z,37.73
2017-11-16T10:24:19.640Z,36.13
2017-11-16T10:26:47.100Z,36.37
2017-11-16T10:29:14.593Z,39.53
2017-11-16T10:31:43.565Z,46.27
2017-11-16T10:34:11.148Z,38.00
2017-11-16T10:36:38.705Z,39.63
2017-11-16T10:39:06.174Z,45.77
2017-11-16T10:41:34.400Z,36.40
2017-11-16T10:44:01.880Z,36.63
2017-11-16T10:46:29.342Z,36.33
2017-11-16T10:48:56.816Z,35.70
2017-11-16T10:51:25.048Z,37.73
2017-11-16T10:53:52.529Z,40.37
2017-11-16T10:56:20.004Z,43.80
2017-11-16T10:58:48.241Z,44.93
2017-11-16T11:01:15.718Z,41.53
2017-11-16T11:03:43.184Z,47.63
2017-11-16T11:06:10.668Z,46.97
2017-11-16T11:08:38.896Z,41.27
2017-11-16T11:11:06.385Z,44.33
2017-11-16T11:13:34.630Z,45.13
2017-11-16T11:16:02.100Z,43.67
2017-11-16T11:18:31.085Z,43.90
2017-11-16T11:20:58.569Z,47.00
2017-11-16T11:23:26.806Z,43.10
2017-11-16T11:25:54.271Z,41.90
2017-11-16T11:28:21.752Z,47.83
2017-11-16T11:30:50.011Z,41.53
2017-11-16T11:33:17.481Z,42.00
2017-11-16T11:35:44.975Z,46.17
2017-11-16T11:38:12.436Z,48.77
2017-11-16T11:40:39.932Z,42.13
2017-11-16T11:43:07.404Z,42.90
2017-11-16T11:45:34.877Z,42.63
2017-11-16T11:48:03.101Z,40.43
2017-11-16T11:50:30.580Z,40.10
2017-11-16T11:52:59.563Z,42.80
2017-11-16T11:55:27.023Z,40.53
2017-11-16T11:57:54.512Z,45.97
2017-11-16T12:00:22.731Z,35.00
2017-11-16T12:02:50.214Z,52.60
2017-11-16T12:05:17.668Z,38.40
2017-11-16T12:07:45.898Z,40.47
2017-11-16T12:10:13.377Z,44.90
2017-11-16T12:12:40.833Z,47.27
2017-11-16T12:15:08.316Z,45.07
2017-11-16T12:17:36.552Z,44.60
2017-11-16T12:20:04.055Z,45.97
2017-11-16T12:22:33.024Z,44.77
2017-11-16T12:25:00.488Z,39.70
2017-11-16T12:27:27.960Z,41.30
2017-11-16T12:29:55.437Z,39.80
2017-11-16T12:32:23.687Z,39.93
2017-11-16T12:34:51.143Z,37.80
2017-11-16T12:37:19.389Z,38.20
2017-11-16T12:39:46.856Z,40.43
2017-11-16T12:42:14.359Z,40.97
2017-11-16T12:44:42.600Z,41.63
2017-11-16T12:47:10.055Z,49.83
2017-11-16T12:49:37.540Z,39.13
2017-11-16T12:52:05.776Z,39.20
2017-11-16T12:54:33.236Z,36.90
2017-11-16T12:57:00.722Z,38.37
2017-11-16T12:59:28.961Z,33.80
2017-11-16T13:01:56.428Z,32.90
2017-11-16T13:04:23.926Z,36.43
2017-11-16T13:06:52.179Z,35.97
2017-11-16T13:09:19.658Z,41.73
2017-11-16T13:11:47.912Z,36.00
2017-11-16T13:14:15.387Z,55.47
2017-11-16T13:16:43.622Z,37.60
2017-11-16T13:19:11.107Z,39.53
2017-11-16T13:21:39.608Z,39.97
2017-11-16T13:24:07.093Z,38.53
2017-11-16T13:26:34.567Z,41.77
2017-11-16T13:29:02.070Z,37.10
2017-11-16T13:31:30.297Z,39.50
2017-11-16T13:33:57.791Z,42.60
2017-11-16T13:36:26.021Z,37.57
2017-11-16T13:38:53.485Z,41.10
2017-11-16T13:41:21.068Z,38.37
2017-11-16T13:43:48.538Z,40.83
2017-11-16T13:46:16.756Z,36.53
2017-11-16T13:48:44.228Z,39.63
2017-11-16T13:51:11.712Z,38.87
2017-11-16T13:53:39.174Z,39.73
2017-11-16T13:56:07.253Z,33.57
2017-11-16T13:58:35.487Z,34.90
2017-11-16T14:01:02.957Z,40.53
2017-11-16T14:03:31.944Z,42.97
2017-11-16T14:05:59.411Z,40.50
2017-11-16T14:08:26.876Z,40.90
2017-11-16T14:10:54.339Z,45.10
2017-11-16T14:13:21.808Z,41.07
2017-11-16T14:15:50.036Z,39.20
2017-11-16T14:18:17.511Z,44.30
2017-11-16T14:20:46.479Z,44.23
2017-11-16T14:23:13.953Z,38.70
2017-11-16T14:25:42.928Z,47.53
2017-11-16T14:28:10.393Z,51.53
2017-11-16T14:30:37.872Z,44.67
2017-11-16T14:33:05.367Z,45.30
2017-11-16T14:35:32.829Z,49.23
2017-11-16T14:38:00.313Z,48.93
2017-11-16T14:40:27.776Z,54.07
2017-11-16T14:42:55.268Z,46.30
2017-11-16T14:45:23.488Z,50.50
2017-11-16T14:47:50.956Z,53.57
2017-11-16T14:50:18.430Z,48.73
2017-11-16T14:52:45.918Z,46.20
2017-11-16T14:55:14.156Z,49.70
2017-11-16T14:57:43.151Z,53.30
2017-11-16T15:00:10.631Z,51.60
2017-11-16T15:02:38.869Z,59.13
2017-11-16T15:05:06.336Z,55.30
2017-11-16T15:07:33.812Z,56.47
2017-11-16T15:10:01.298Z,52.93
2017-11-16T15:12:29.537Z,53.30
2017-11-16T15:14:57.005Z,52.00
2017-11-16T15:17:25.636Z,51.23
2017-11-16T15:19:53.906Z,60.90
2017-11-16T15:22:21.384Z,49.23
2017-11-16T15:24:48.865Z,56.10
2017-11-16T15:27:16.344Z,54.80
2017-11-16T15:29:44.606Z,47.30
2017-11-16T15:32:12.082Z,47.80
2017-11-16T15:34:40.308Z,35.97
2017-11-16T15:37:07.784Z,43.03
2017-11-16T15:39:35.269Z,43.73
2017-11-16T15:42:03.678Z,35.03
2017-11-16T15:44:31.161Z,39.67
2017-11-16T15:46:58.615Z,34.60
2017-11-16T15:49:26.094Z,35.17
2017-11-16T15:51:53.562Z,36.20
2017-11-16T15:54:21.787Z,39.90
2017-11-16T15:56:49.276Z,40.93
2017-11-16T15:59:16.744Z,38.30
2017-11-16T16:01:45.022Z,35.37
2017-11-16T16:04:14.432Z,38.63
2017-11-16T16:06:42.674Z,37.93
2017-11-16T16:09:10.151Z,38.77
2017-11-16T16:11:37.641Z,37.60
2017-11-16T16:14:05.121Z,37.70
2017-11-16T16:16:32.573Z,35.63
2017-11-16T16:19:00.057Z,33.93
2017-11-16T16:21:27.520Z,40.27
2017-11-16T16:23:55.764Z,44.20
2017-11-16T16:26:23.228Z,40.20
2017-11-16T16:28:50.692Z,36.23
2017-11-16T16:31:19.614Z,42.00
2017-11-16T16:33:47.162Z,38.47
2017-11-16T16:36:14.639Z,38.77
2017-11-16T16:38:42.865Z,37.57
2017-11-16T16:41:10.360Z,36.70
2017-11-16T16:43:37.832Z,38.43
2017-11-16T16:46:06.060Z,34.30
2017-11-16T16:48:33.532Z,41.60
2017-11-16T16:51:02.506Z,35.53
2017-11-16T16:53:29.979Z,37.13
2017-11-16T16:55:57.455Z,35.07
2017-11-16T16:58:24.933Z,38.27
2017-11-16T17:00:52.416Z,34.43
2017-11-16T17:03:19.899Z,38.40
2017-11-16T17:05:47.388Z,39.87
2017-11-16T17:08:15.620Z,38.60
2017-11-16T17:10:43.100Z,37.07
2017-11-16T17:13:10.579Z,36.13
2017-11-16T17:15:38.837Z,37.70
2017-11-16T17:18:06.305Z,38.70
2017-11-16T17:20:34.552Z,43.50
2017-11-16T17:23:02.028Z,40.30
2017-11-16T17:25:29.499Z,43.27
2017-11-16T17:27:57.778Z,41.63
2017-11-16T17:30:25.993Z,35.77
2017-11-16T17:32:53.477Z,40.70
2017-11-16T17:35:20.935Z,36.97
2017-11-16T17:37:48.406Z,38.10
2017-11-16T17:40:16.152Z,42.70
2017-11-16T17:42:45.127Z,34.40
2017-11-16T17:45:12.675Z,35.50
2017-11-16T17:47:40.170Z,37.00
2017-11-16T17:50:08.406Z,34.50
2017-11-16T17:52:35.884Z,38.10
2017-11-16T17:55:03.392Z,41.60
2017-11-16T17:57:30.847Z,33.20
2017-11-16T17:59:58.425Z,41.37
2017-11-16T18:02:25.895Z,44.50
2017-11-16T18:04:55.269Z,44.40
2017-11-16T18:07:24.664Z,64.33
2017-11-16T18:09:54.407Z,58.80
2017-11-16T18:12:24.506Z,59.07
2017-11-16T18:14:53.972Z,52.63
2017-11-16T18:17:22.900Z,51.70
2017-11-16T18:19:52.158Z,60.33
2017-11-16T18:22:21.732Z,49.10
2017-11-16T18:24:50.783Z,51.23
2017-11-16T18:27:19.761Z,46.47
2017-11-16T18:29:49.097Z,48.37
2017-11-16T18:32:18.383Z,51.87
2017-11-16T18:34:47.361Z,54.93
2017-11-16T18:37:16.229Z,61.33
2017-11-16T18:39:45.248Z,55.03
2017-11-16T18:42:14.015Z,51.27
2017-11-16T18:44:41.573Z,74.73
2017-11-16T18:47:09.023Z,49.90
2017-11-16T18:49:36.520Z,73.37
2017-11-16T18:52:04.165Z,70.83
2017-11-16T18:54:32.401Z,69.83
2017-11-16T18:56:59.871Z,73.13
2017-11-16T18:59:27.371Z,77.97
2017-11-16T19:01:54.849Z,88.23
2017-11-16T19:04:22.310Z,91.63
2017-11-16T19:06:49.784Z,68.43
2017-11-16T19:09:17.340Z,69.50
2017-11-16T19:11:44.821Z,72.93
2017-11-16T19:14:13.068Z,83.10
2017-11-16T19:16:40.609Z,76.40
2017-11-16T19:19:08.076Z,78.83
2017-11-16T19:21:35.570Z,79.53
2017-11-16T19:24:03.808Z,66.97
2017-11-16T19:26:31.280Z,69.53
2017-11-16T19:28:58.755Z,65.60
2017-11-16T19:31:27.008Z,68.80
2017-11-16T19:33:54.474Z,76.77
2017-11-16T19:36:21.949Z,69.63
2017-11-16T19:38:50.196Z,71.00
2017-11-16T19:41:17.678Z,66.03
2017-11-16T19:43:45.916Z,71.50
2017-11-16T19:46:13.382Z,64.80
2017-11-16T19:48:40.897Z,70.20
2017-11-16T19:51:08.404Z,73.57
2017-11-16T19:53:35.873Z,70.63
2017-11-16T19:56:03.336Z,67.90
2017-11-16T19:58:31.697Z,69.23
2017-11-16T20:00:59.170Z,70.70
2017-11-16T20:03:27.446Z,64.03
2017-11-16T20:05:54.949Z,61.87
2017-11-16T20:08:22.495Z,74.17
2017-11-16T20:10:49.968Z,59.63
2017-11-16T20:13:17.440Z,67.90
2017-11-16T20:15:46.540Z,60.20
2017-11-16T20:18:14.024Z,63.60
2017-11-16T20:20:42.313Z,59.97
2017-11-16T20:23:10.565Z,68.23
2017-11-16T20:25:38.047Z,65.83
2017-11-16T20:28:06.307Z,64.33
2017-11-16T20:30:34.522Z,63.00
2017-11-16T20:33:01.992Z,68.20
2017-11-16T20:35:29.524Z,70.73
2017-11-16T20:37:56.983Z,70.03
2017-11-16T20:40:43.117Z,69.90
2017-11-16T20:46:26.330Z,81.50
2017-11-16T20:48:55.433Z,72.97
2017-11-16T20:54:30.487Z,68.67
2017-11-16T20:56:58.002Z,73.90
2017-11-16T20:59:26.257Z,70.13
2017-11-16T21:01:53.868Z,81.87
2017-11-16T21:04:21.411Z,71.60
2017-11-16T21:06:48.904Z,84.33
2017-11-16T21:09:16.357Z,77.13
2017-11-16T21:11:43.840Z,74.50
2017-11-16T21:14:11.299Z,80.23
2017-11-16T21:16:38.772Z,72.87
2017-11-16T21:19:07.000Z,78.30
2017-11-16T21:21:34.540Z,77.23
2017-11-16T21:24:02.017Z,85.97
2017-11-16T21:26:29.491Z,85.80
2017-11-16T21:28:56.987Z,82.93
2017-11-16T21:31:25.228Z,85.13
2017-11-16T21:33:52.708Z,79.70
2017-11-16T21:36:20.963Z,86.87
2017-11-16T21:38:48.438Z,87.50
2017-11-16T21:41:16.676Z,81.13
2017-11-16T21:43:44.134Z,79.73
2017-11-16T21:46:11.615Z,83.63
2017-11-16T21:48:39.071Z,78.70
2017-11-16T21:51:06.531Z,82.00
2017-11-16T21:53:34.815Z,91.10
2017-11-16T21:56:03.051Z,79.17
2017-11-16T21:58:30.539Z,86.10
2017-11-16T22:00:58.243Z,85.63
2017-11-16T22:03:25.715Z,89.37
2017-11-16T22:05:53.186Z,84.57
2017-11-16T22:08:20.661Z,85.70
2017-11-16T22:10:48.129Z,89.37
2017-11-16T22:13:15.599Z,85.83
2017-11-16T22:15:43.837Z,96.73
2017-11-16T22:18:11.296Z,94.33
2017-11-16T22:20:38.756Z,88.90
2017-11-16T22:23:06.238Z,84.87
2017-11-16T22:25:34.500Z,101.27
2017-11-16T22:28:01.959Z,87.07
2017-11-16T22:30:30.535Z,102.37
2017-11-16T22:32:57.993Z,94.03
2017-11-16T22:35:25.475Z,95.97
2017-11-16T22:37:52.940Z,95.20
2017-11-16T22:40:20.400Z,95.40
2017-11-16T22:42:47.892Z,103.40
2017-11-16T22:45:15.345Z,97.63
2017-11-16T22:47:42.805Z,94.50
2017-11-16T22:50:10.285Z,91.70
2017-11-16T22:52:37.782Z,103.43
2017-11-16T22:55:05.259Z,87.67
2017-11-16T22:57:32.757Z,96.97
2017-11-16T23:00:00.223Z,112.43
2017-11-16T23:02:27.775Z,98.93
2017-11-16T23:04:56.760Z,101.40
2017-11-16T23:07:24.266Z,92.17
2017-11-16T23:09:51.722Z,106.27
2017-11-16T23:12:19.198Z,98.37
2017-11-16T23:14:46.671Z,111.37
2017-11-16T23:17:14.143Z,104.97
2017-11-16T23:19:41.627Z,112.07
2017-11-16T23:22:09.864Z,107.33
2017-11-16T23:24:37.346Z,105.30
2017-11-16T23:27:05.593Z,102.23
2017-11-16T23:29:33.051Z,101.37
2017-11-16T23:32:00.574Z,102.87
2017-11-16T23:34:28.028Z,98.83
2017-11-16T23:36:55.504Z,101.87
2017-11-16T23:39:22.980Z,111.57
2017-11-16T23:41:50.456Z,94.47
2017-11-16T23:44:17.940Z,102.73
2017-11-16T23:46:46.179Z,112.67
2017-11-16T23:49:13.637Z,97.83
2017-11-16T23:51:41.123Z,102.83
2017-11-16T23:54:08.656Z,104.50
2017-11-16T23:56:36.145Z,114.90
2017-11-16T23:59:03.639Z,112.83
